Au Sable, Michigan
Current Conditions -  °F | °C
As of 3:54 PM on Tuesday 21 Oct 2014 (Local Time) from KOSC Reporting Station
Overcast Overcast  
Wind Chill: 38°   Ceiling: 3100
Heat Index: 46°   Visibility: 10mi
Dew Point: 33°   Wind: 18mph
Humidity: 62%   Direction: 10°N
Pressure: 30.15"   Gusts: 23mph
Location:  44.4539°N, 83.4813°W
Report Text: KOSC 211954Z AUTO 01016G20KT 10SM OVC031 07/00 A3015 RMK AO2 T00760007
Loading
Personal Weather Stations






























Interactive Weather Map
Tropical Storm Tracking
New forecast layout! Learn more

10-Day Weather Forecast

Advertisements
Track Severe Weather on mobile